• Join FlightAware (Why Join?)
  • Login
  • US Flag 
03:04PM EST


 

Airport Tracker/Info


-or-


 

Live Flight TrackerFlight Track Log ✈ UAL4686 ✈ 01-May-2014 ✈ KBNA - KEWR

Flight Track Log - Related Links

Times and Time Zones

All times are in EDT time to prevent confusion due to time zone crossing. See the UAL4686 flight status page for this flight to view local times or setup timezone preferences in your user account.

Time Position Orientation Groundspeed Altitude Reporting Facility
EDT Latitude Longitude Course Direction KTS MPH feet Rate Location/Type
07:59PM 36.1167 -86.6833 68° East 154 177 1,100  Level Nashville TRACON
08:00PM 36.0667 -86.6500 152° Southeast 217 250 3,300 1,260 Climbing Nashville TRACON
08:01PM 36.0639 -86.5781 93° East 262 302 3,900 1,200 Climbing Memphis Center
08:02PM 36.0892 -86.4900 70° East 269 310 5,700 1,920 Climbing Memphis Center
08:03PM 36.2297 -85.9924 64° Northeast  Level FlightAware Approximate
08:03PM 36.1142 -86.4000 71° East 271 312 7,900  Level Memphis Center
08:04PM 36.2777 -85.8669 68° East  Level FlightAware Approximate
08:04PM 36.1436 -86.2858 72° East 289 333 10,100  Level Memphis Center
08:05PM 36.1722 -86.1778 72° East 319 367 11,000 960 Climbing Memphis Center
08:06PM 36.2061 -86.0575 71° East 356 410 12,100 1,020 Climbing Memphis Center
08:07PM 36.2603 -85.9378 61° Northeast 384 442 13,200 1,140 Climbing Memphis Center
08:08PM 36.3183 -85.8069 61° Northeast 400 460 14,500 1,200 Climbing Memphis Center
08:09PM 36.3769 -85.6822 60° Northeast 409 471 15,700 1,080 Climbing Memphis Center
08:10PM 36.4364 -85.5575 59° Northeast 413 475 16,900 1,140 Climbing Indianapolis Center
08:11PM 36.4969 -85.4294 60° Northeast 424 488 18,200 1,260 Climbing Indianapolis Center
08:12PM 36.5719 -85.2725 59° Northeast 434 499 19,600 1,200 Climbing Indianapolis Center
08:13PM 36.6292 -85.1350 63° Northeast 440 506 20,800 1,200 Climbing Indianapolis Center
08:14PM 36.6739 -84.9856 69° East 453 521 22,100 1,200 Climbing Indianapolis Center
08:15PM 36.7197 -84.8361 69° East 458 527 23,300 1,140 Climbing Indianapolis Center
08:16PM 36.7658 -84.6856 69° East 459 528 24,500 1,080 Climbing Indianapolis Center
08:17PM 36.8122 -84.5347 69° East 460 529 25,600 1,020 Climbing Indianapolis Center
08:18PM 36.8583 -84.3783 70° East 470 541 26,700 1,020 Climbing Indianapolis Center
08:19PM 36.9122 -84.1986 69° East 470 541 27,800 1,020 Climbing Indianapolis Center
08:20PM 36.9586 -84.0436 69° East 474 545 28,900 1,020 Climbing Indianapolis Center
08:21PM 37.0044 -83.8883 70° East 474 545 29,900 960 Climbing Indianapolis Center
08:22PM 37.0503 -83.7308 70° East 474 545 30,900 960 Climbing Indianapolis Center
08:24PM 37.0975 -83.5747 69° East 477 549 31,900 960 Climbing Indianapolis Center
08:25PM 37.1428 -83.4158 70° East 478 550 32,900 960 Climbing Indianapolis Center
08:26PM 37.1886 -83.2558 70° East 479 551 33,900 900 Climbing Indianapolis Center
08:27PM 37.2350 -83.0958 70° East 481 554 34,800 480 Climbing Indianapolis Center
08:28PM 37.2892 -82.9050 70° East 486 559 35,000 60 Climbing Indianapolis Center
08:29PM 37.3386 -82.7342 70° East 506 582 35,000  Level Indianapolis Center
08:30PM 37.3883 -82.5564 71° East 528 608 35,000  Level Indianapolis Center
08:31PM 37.4394 -82.3747 70° East 541 623 35,000  Level Indianapolis Center
08:32PM 37.4903 -82.1928 71° East 544 626 35,000 -300 Level Indianapolis Center
08:33PM 37.5400 -82.0094 71° East 547 629 34,500 -720 Descending Indianapolis Center
08:34PM 37.5897 -81.8306 71° East 547 629 33,600 -780 Descending Indianapolis Center
08:35PM 37.6372 -81.6506 72° East 541 623 33,000 -300 Descending Indianapolis Center
08:36PM 37.6897 -81.4586 71° East 540 621 33,000  Level Indianapolis Center
08:37PM 37.7375 -81.2825 71° East 540 621 33,000  Level Indianapolis Center
08:38PM 37.7825 -81.0656 75° East 548 631 33,000  Level Indianapolis Center
08:39PM 37.7969 -80.8806 84° East 546 628 33,000  Level Indianapolis Center
08:40PM 37.8083 -80.6964 85° East 546 628 33,000  Level Indianapolis Center
08:41PM 37.8222 -80.5106 85° East 537 618 33,000  Level Washington Center
08:42PM 37.8319 -80.3194 86° East 537 618 33,000  Level Washington Center
08:43PM 37.8469 -80.1467 84° East 537 618 33,000  Level Washington Center
08:44PM 37.8644 -79.9583 83° East 537 618 33,000  Level Washington Center
08:45PM 37.8836 -79.7675 83° East 537 618 33,000  Level Washington Center
08:46PM 37.9006 -79.5789 83° East 537 618 33,000  Level Washington Center
08:47PM 37.9150 -79.3875 84° East 537 618 33,000  Level Washington Center
08:48PM 37.9333 -79.2014 83° East 537 618 33,000  Level Washington Center
08:49PM 37.9497 -78.9967 84° East 537 618 33,000  Level Washington Center
08:50PM 37.9653 -78.8106 84° East 537 618 33,000  Level Washington Center
08:51PM 37.9808 -78.6214 84° East 537 618 33,000  Level Washington Center
08:52PM 37.9958 -78.4350 84° East 537 618 33,000  Level Washington Center
08:53PM 38.0078 -78.2667 85° East 537 618 33,000  Level Washington Center
08:54PM 38.0539 -78.0733 73° East 523 602 33,000  Level Washington Center
08:55PM 38.1342 -77.9122 58° Northeast 517 595 33,000  Level Washington Center
08:56PM 38.2164 -77.7483 57° Northeast 529 609 33,000  Level Washington Center
08:57PM 38.2964 -77.5811 59° Northeast 543 625 33,000  Level Washington Center
08:58PM 38.3761 -77.4164 58° Northeast 548 631 33,000  Level Washington Center
08:59PM 38.4600 -77.2489 57° Northeast 553 636 33,000  Level Washington Center
09:00PM 38.5414 -77.0833 58° Northeast 553 636 33,000  Level Washington Center
09:01PM 38.6350 -76.9286 52° Northeast 540 621 33,000 -300 Level Washington Center
09:02PM 38.7303 -76.7758 51° Northeast 550 633 32,500 -1,140 Descending Washington Center
09:03PM 38.8278 -76.6228 51° Northeast 550 633 30,700 -1,800 Descending Washington Center
09:04PM 38.9206 -76.4722 52° Northeast 550 633 29,000 -1,800 Descending Washington Center
09:05PM 39.0175 -76.3211 50° Northeast 550 633 27,200 -1,020 Descending Washington Center
09:06PM 39.1100 -76.1694 52° Northeast 544 626 27,000 -120 Descending Washington Center
09:07PM 39.2044 -76.0175 51° Northeast 538 619 27,000  Level Washington Center
09:08PM 39.2986 -75.8653 51° Northeast 538 619 27,000 -120 Level Washington Center
09:09PM 39.3925 -75.7125 51° Northeast 538 619 26,800 -300 Descending Washington Center
09:10PM 39.4864 -75.5567 52° Northeast 538 619 26,500 -480 Descending Washington Center
09:11PM 39.5781 -75.4031 52° Northeast 533 613 25,900 -960 Descending Washington Center
09:12PM 39.6839 -75.2761 43° Northeast 516 594 24,600 -1,800 Descending Washington Center
09:13PM 39.8025 -75.1811 32° Northeast 511 588 22,300 -1,980 Descending Washington Center
09:14PM 39.9064 -75.0911 34° Northeast 469 540 20,800 -1,500 Descending Washington Center
09:15PM 39.9767 -74.9769 51° Northeast 439 505 19,400 -2,460 Descending Washington Center
09:16PM 40.0500 -74.8333 56° Northeast 429 494 16,100 -3,480 Descending New York TRACON
09:17PM 40.1333 -74.7667 31° Northeast 390 449 12,700 -2,880 Descending New York TRACON
09:18PM 40.2333 -74.7167 21° North 356 410 10,400 -1,740 Descending New York TRACON
09:19PM 40.3333 -74.7000 North 316 364 9,100 -1,140 Descending New York TRACON
09:20PM 40.4000 -74.6833 11° North 283 326 8,200 -1,320 Descending New York TRACON
09:21PM 40.4833 -74.6500 17° North 289 333 6,700 -1,080 Descending New York TRACON
09:22PM 40.5667 -74.6333 North 274 315 6,000 -360 Descending New York TRACON
09:23PM 40.6333 -74.6167 11° North 280 322 6,000  Level New York TRACON
09:24PM 40.7167 -74.6000 North 278 320 6,000  Level New York TRACON
09:25PM 40.8000 -74.5667 17° North 277 319 6,000  Level New York TRACON
09:26PM 40.8500 -74.5333 27° Northeast 282 325 6,000 -120 Level New York TRACON
09:27PM 40.9167 -74.4667 37° Northeast 285 328 5,800 -480 Descending New York TRACON
09:28PM 40.9667 -74.4000 45° Northeast 290 334 5,100 -360 Descending New York TRACON
09:29PM 41.0000 -74.3000 66° East 282 325 5,100 -60 Level New York TRACON
09:30PM 40.9833 -74.2167 105° East 279 321 5,000 -60 Descending New York TRACON
09:31PM 40.9500 -74.1333 118° Southeast 255 293 5,000 -660 Level New York TRACON
09:32PM 40.9167 -74.0667 123° Southeast 231 266 3,700 -960 Descending New York TRACON
09:33PM 40.8500 -74.0667 180° South 208 239 3,000 -720 Descending New York TRACON
09:34PM 40.7833 -74.0833 191° South 209 241 2,200 -720 Descending New York TRACON
09:35PM 40.7333 -74.0833 180° South 194 223 1,500 -660 Descending New York TRACON
09:36PM 40.7000 -74.1000 201° Southwest 137 158 1,000 -600 Descending New York TRACON
09:38PM 40.6833 -74.1667 174° South  Level FlightAware Approximate